createdAt,value
2022-09-17T00:00:55.088Z,0.93
2022-09-17T00:01:56.901Z,0.90
2022-09-17T00:02:58.737Z,0.90
2022-09-17T00:04:05.484Z,1.10
2022-09-17T00:05:07.762Z,0.90
2022-09-17T00:06:12.525Z,0.90
2022-09-17T00:07:14.831Z,1.00
2022-09-17T00:08:16.555Z,0.88
2022-09-17T00:09:18.304Z,0.80
2022-09-17T00:10:21.247Z,0.75
2022-09-17T00:11:26.617Z,1.10
2022-09-17T00:12:29.134Z,0.80
2022-09-17T00:13:30.809Z,0.80
2022-09-17T00:14:32.573Z,0.90
2022-09-17T00:15:43.532Z,0.77
2022-09-17T00:16:47.920Z,0.93
2022-09-17T00:17:55.251Z,0.93
2022-09-17T00:18:57.683Z,0.80
2022-09-17T00:19:59.418Z,1.15
2022-09-17T00:21:01.075Z,1.13
2022-09-17T00:22:02.956Z,1.20
2022-09-17T00:23:04.619Z,1.08
2022-09-17T00:24:06.903Z,0.90
2022-09-17T00:25:08.749Z,0.97
2022-09-17T00:26:10.623Z,1.00
2022-09-17T00:27:12.445Z,1.15
2022-09-17T00:28:15.275Z,1.03
2022-09-17T00:29:16.967Z,1.40
2022-09-17T00:30:18.633Z,0.90
2022-09-17T00:31:20.821Z,0.90
2022-09-17T00:32:23.518Z,0.80
2022-09-17T00:33:25.519Z,1.10
2022-09-17T00:34:27.321Z,1.00
2022-09-17T00:35:29.919Z,1.02
2022-09-17T00:36:34.342Z,1.02
2022-09-17T00:37:36.048Z,0.90
2022-09-17T00:38:37.998Z,1.38
2022-09-17T00:39:39.732Z,0.90
2022-09-17T00:40:41.439Z,1.10
2022-09-17T00:41:44.235Z,1.10
2022-09-17T00:42:46.156Z,0.98
2022-09-17T00:43:53.878Z,1.10
2022-09-17T00:44:57.200Z,1.20
2022-09-17T00:45:59.440Z,1.02
2022-09-17T00:47:01.259Z,1.00
2022-09-17T00:48:05.528Z,0.80
2022-09-17T00:49:22.707Z,1.02
2022-09-17T00:50:37.708Z,1.02
2022-09-17T00:51:47.080Z,1.10
2022-09-17T00:53:11.012Z,1.00
2022-09-17T00:54:12.920Z,1.33
2022-09-17T00:55:28.995Z,0.88
2022-09-17T00:56:34.798Z,0.98
2022-09-17T00:57:36.645Z,1.10
2022-09-17T00:58:41.454Z,1.17
2022-09-17T00:59:43.348Z,1.30
2022-09-17T01:00:46.894Z,1.10
2022-09-17T01:01:49.252Z,1.17
2022-09-17T01:02:53.287Z,1.00
2022-09-17T01:03:55.104Z,1.30
2022-09-17T01:04:56.850Z,0.88
2022-09-17T01:06:35.639Z,1.00
2022-09-17T01:08:03.002Z,0.98
2022-09-17T01:09:04.628Z,1.05
2022-09-17T01:10:18.843Z,1.00
2022-09-17T01:11:23.209Z,1.02
2022-09-17T01:12:46.629Z,1.15
2022-09-17T01:14:00.379Z,0.80
2022-09-17T01:15:10.971Z,1.30
2022-09-17T01:16:48.066Z,1.10
2022-09-17T01:18:25.118Z,1.10
2022-09-17T01:19:29.881Z,1.10
2022-09-17T01:20:43.823Z,1.13
2022-09-17T01:21:56.006Z,1.10
2022-09-17T01:23:24.279Z,1.17
2022-09-17T01:24:37.886Z,1.40
2022-09-17T01:26:03.162Z,1.20
2022-09-17T01:27:10.756Z,1.00
2022-09-17T01:28:42.834Z,1.30
2022-09-17T01:30:26.362Z,1.30
2022-09-17T01:31:49.598Z,1.30
2022-09-17T01:33:05.835Z,1.10
2022-09-17T01:34:19.341Z,1.05
2022-09-17T01:35:26.088Z,1.20
2022-09-17T01:36:57.294Z,1.00
2022-09-17T01:38:04.962Z,1.00
2022-09-17T01:39:19.492Z,1.20
2022-09-17T01:40:27.569Z,1.67
2022-09-17T01:41:53.000Z,1.20
2022-09-17T01:43:13.874Z,1.50
2022-09-17T01:44:40.901Z,1.30
2022-09-17T01:45:49.611Z,1.03
2022-09-17T01:46:56.987Z,1.55
2022-09-17T01:48:11.574Z,1.30
2022-09-17T01:49:16.741Z,1.30
2022-09-17T01:50:25.518Z,1.15
2022-09-17T01:51:32.114Z,1.30
2022-09-17T01:52:37.998Z,1.30
2022-09-17T01:54:11.468Z,1.33
2022-09-17T01:55:16.046Z,1.30
2022-09-17T01:56:24.877Z,1.20
2022-09-17T01:57:49.311Z,1.20
2022-09-17T01:59:27.519Z,1.20
2022-09-17T02:00:30.283Z,1.20
2022-09-17T02:01:33.618Z,1.53
2022-09-17T02:03:02.726Z,1.20
2022-09-17T02:04:27.561Z,1.25
2022-09-17T02:05:45.408Z,1.57
2022-09-17T02:06:55.750Z,1.40
2022-09-17T02:08:11.475Z,1.40
2022-09-17T02:09:15.861Z,1.30
2022-09-17T02:10:31.705Z,1.50
2022-09-17T02:11:39.087Z,1.67
2022-09-17T02:12:45.838Z,1.52
2022-09-17T02:13:52.178Z,1.60
2022-09-17T02:14:59.096Z,1.50
2022-09-17T02:16:10.982Z,1.50
2022-09-17T02:17:27.047Z,1.85
2022-09-17T02:18:43.979Z,1.47
2022-09-17T02:19:45.943Z,1.60
2022-09-17T02:20:54.408Z,1.50
2022-09-17T02:22:08.199Z,1.40
2022-09-17T02:23:18.865Z,1.63
2022-09-17T02:24:24.651Z,1.70
2022-09-17T02:25:34.859Z,1.70
2022-09-17T02:26:42.681Z,1.77
2022-09-17T02:28:07.532Z,1.63
2022-09-17T02:29:17.528Z,2.00
2022-09-17T02:30:19.521Z,1.52
2022-09-17T02:31:21.307Z,1.30
2022-09-17T02:32:24.852Z,1.40
2022-09-17T02:33:27.579Z,1.33
2022-09-17T02:34:29.527Z,1.70
2022-09-17T02:35:32.176Z,1.87
2022-09-17T02:36:34.681Z,1.70
2022-09-17T02:37:36.564Z,1.52
2022-09-17T02:38:41.269Z,1.50
2022-09-17T02:39:43.426Z,1.80
2022-09-17T02:40:50.748Z,2.00
2022-09-17T02:42:05.378Z,2.77
2022-09-17T02:43:13.596Z,2.13
2022-09-17T02:44:24.362Z,2.10
2022-09-17T02:45:51.466Z,1.73
2022-09-17T02:47:02.028Z,1.77
2022-09-17T02:48:06.818Z,1.60
2022-09-17T02:49:24.189Z,1.60
2022-09-17T02:51:01.499Z,1.50
2022-09-17T02:52:25.078Z,1.80
2022-09-17T02:53:47.040Z,2.08
2022-09-17T02:55:03.598Z,1.80
2022-09-17T02:56:14.543Z,1.52
2022-09-17T02:57:34.065Z,1.60
2022-09-17T02:58:56.226Z,1.70
2022-09-17T03:00:19.112Z,1.50
2022-09-17T03:01:38.190Z,1.90
2022-09-17T03:02:48.587Z,1.67
2022-09-17T03:03:53.086Z,1.40
2022-09-17T03:04:55.973Z,2.00
2022-09-17T03:05:58.880Z,1.60
2022-09-17T03:07:05.442Z,1.90
2022-09-17T03:08:12.502Z,1.63
2022-09-17T03:09:15.522Z,1.90
2022-09-17T03:10:17.702Z,1.65
2022-09-17T03:11:19.373Z,1.80
2022-09-17T03:12:22.108Z,1.42
2022-09-17T03:13:24.847Z,1.42
2022-09-17T03:14:26.561Z,1.67
2022-09-17T03:15:28.503Z,1.80
2022-09-17T03:16:30.327Z,1.42
2022-09-17T03:17:32.075Z,1.40
2022-09-17T03:18:33.891Z,1.58
2022-09-17T03:19:35.573Z,1.73
2022-09-17T03:20:37.448Z,1.50
2022-09-17T03:21:39.250Z,1.67
2022-09-17T03:22:40.911Z,1.40
2022-09-17T03:23:42.585Z,1.67
2022-09-17T03:24:44.261Z,1.50
2022-09-17T03:25:47.214Z,1.70
2022-09-17T03:26:49.399Z,1.83
2022-09-17T03:27:52.403Z,1.50
2022-09-17T03:28:54.257Z,1.58
2022-09-17T03:29:56.188Z,1.27
2022-09-17T03:30:57.926Z,1.42
2022-09-17T03:32:00.999Z,1.40
2022-09-17T03:33:02.785Z,1.23
2022-09-17T03:34:04.725Z,1.53
2022-09-17T03:35:06.643Z,1.50
2022-09-17T03:36:08.547Z,1.90
2022-09-17T03:37:10.218Z,1.77
2022-09-17T03:38:15.883Z,1.50
2022-09-17T03:39:17.704Z,1.50
2022-09-17T03:40:20.112Z,1.90
2022-09-17T03:41:22.084Z,1.80
2022-09-17T03:42:23.835Z,1.60
2022-09-17T03:43:25.808Z,1.55
2022-09-17T03:44:27.641Z,1.73
2022-09-17T03:45:29.318Z,1.60
2022-09-17T03:46:31.274Z,1.43
2022-09-17T03:47:33.103Z,1.80
2022-09-17T03:48:37.182Z,1.75
2022-09-17T03:49:38.992Z,1.73
2022-09-17T03:50:41.114Z,1.85
2022-09-17T03:51:43.179Z,1.60
2022-09-17T03:52:44.927Z,1.50
2022-09-17T03:53:47.865Z,1.48
2022-09-17T03:54:49.774Z,1.67
2022-09-17T03:55:51.466Z,1.45
2022-09-17T03:56:53.166Z,1.53
2022-09-17T03:57:56.177Z,2.10
2022-09-17T03:59:01.960Z,1.40
2022-09-17T04:00:06.151Z,1.50
2022-09-17T04:01:08.081Z,1.98
2022-09-17T04:02:09.909Z,2.03
2022-09-17T04:03:11.680Z,1.50
2022-09-17T04:04:13.359Z,1.60
2022-09-17T04:05:15.127Z,1.47
2022-09-17T04:06:16.819Z,1.75
2022-09-17T04:07:18.541Z,1.70
2022-09-17T04:08:20.668Z,1.40
2022-09-17T04:09:22.314Z,1.63
2022-09-17T04:10:24.097Z,1.70
2022-09-17T04:11:25.815Z,1.65
2022-09-17T04:12:27.529Z,1.50
2022-09-17T04:13:29.322Z,1.77
2022-09-17T04:14:31.673Z,1.50
2022-09-17T04:15:33.424Z,1.67
2022-09-17T04:16:35.449Z,1.60
2022-09-17T04:17:37.298Z,1.60
2022-09-17T04:18:39.048Z,1.37
2022-09-17T04:19:40.789Z,1.80
2022-09-17T04:20:43.223Z,1.70
2022-09-17T04:21:44.963Z,1.83
2022-09-17T04:22:46.648Z,1.73
2022-09-17T04:23:48.323Z,1.90
2022-09-17T04:24:49.998Z,1.60
2022-09-17T04:25:51.677Z,1.30
2022-09-17T04:26:53.334Z,1.63
2022-09-17T04:27:55.009Z,1.40
2022-09-17T04:28:56.807Z,1.90
2022-09-17T04:29:58.584Z,1.47
2022-09-17T04:31:00.429Z,1.60
2022-09-17T04:32:02.399Z,1.77
2022-09-17T04:33:04.612Z,1.80
2022-09-17T04:34:06.392Z,1.83
2022-09-17T04:35:08.550Z,1.85
2022-09-17T04:36:10.215Z,1.57
2022-09-17T04:37:11.873Z,1.70
2022-09-17T04:38:18.325Z,1.95
2022-09-17T04:39:20.000Z,1.93
2022-09-17T04:40:22.768Z,2.03
2022-09-17T04:41:24.476Z,1.70
2022-09-17T04:42:26.244Z,1.63
2022-09-17T04:43:27.971Z,1.93
2022-09-17T04:44:29.622Z,1.85
2022-09-17T04:45:33.481Z,1.73
2022-09-17T04:46:35.462Z,1.97
2022-09-17T04:47:40.689Z,1.97
2022-09-17T04:48:42.783Z,1.97
2022-09-17T04:49:44.432Z,1.90
2022-09-17T04:50:46.160Z,1.80
2022-09-17T04:51:47.937Z,2.28
2022-09-17T04:52:49.672Z,1.88
2022-09-17T04:53:51.348Z,1.80
2022-09-17T04:54:53.011Z,2.25
2022-09-17T04:55:54.861Z,1.57
2022-09-17T04:56:56.630Z,1.83
2022-09-17T04:57:58.456Z,1.60
2022-09-17T04:59:00.125Z,1.50
2022-09-17T05:00:02.222Z,1.87
2022-09-17T05:01:04.038Z,1.60
2022-09-17T05:02:05.931Z,1.90
2022-09-17T05:03:08.014Z,1.77
2022-09-17T05:04:10.278Z,2.00
2022-09-17T05:05:12.025Z,1.63
2022-09-17T05:06:14.020Z,1.80
2022-09-17T05:07:15.696Z,1.42
2022-09-17T05:08:17.418Z,1.80
2022-09-17T05:09:19.086Z,1.95
2022-09-17T05:10:22.849Z,1.83
2022-09-17T05:11:24.580Z,1.75
2022-09-17T05:12:26.282Z,1.85
2022-09-17T05:13:28.116Z,1.95
2022-09-17T05:14:29.897Z,1.77
2022-09-17T05:15:31.654Z,2.10
2022-09-17T05:16:33.634Z,1.77
2022-09-17T05:17:35.353Z,1.93
2022-09-17T05:18:37.021Z,1.53
2022-09-17T05:19:38.727Z,1.80
2022-09-17T05:20:40.470Z,2.00
2022-09-17T05:21:42.149Z,1.55
2022-09-17T05:22:49.073Z,1.50
2022-09-17T05:23:50.763Z,2.08
2022-09-17T05:24:52.519Z,1.90
2022-09-17T05:25:59.108Z,1.85
2022-09-17T05:27:00.839Z,1.60
2022-09-17T05:28:02.664Z,1.55
2022-09-17T05:29:04.800Z,1.60
2022-09-17T05:30:08.273Z,1.63
2022-09-17T05:31:10.391Z,1.53
2022-09-17T05:32:12.211Z,1.50
2022-09-17T05:33:13.993Z,1.60
2022-09-17T05:34:15.752Z,1.70
2022-09-17T05:35:17.611Z,1.60
2022-09-17T05:36:19.376Z,1.80
2022-09-17T05:37:21.086Z,1.73
2022-09-17T05:38:23.039Z,1.57
2022-09-17T05:39:28.160Z,2.23
2022-09-17T05:40:30.693Z,2.00
2022-09-17T05:41:33.888Z,2.00
2022-09-17T05:42:35.769Z,2.00
2022-09-17T05:43:37.449Z,1.90
2022-09-17T05:44:39.139Z,1.80
2022-09-17T05:45:41.114Z,1.63
2022-09-17T05:46:42.843Z,1.90
2022-09-17T05:47:44.608Z,1.70
2022-09-17T05:48:46.285Z,1.70
2022-09-17T05:49:47.958Z,2.20
2022-09-17T05:50:49.830Z,2.00
2022-09-17T05:51:52.006Z,1.70
2022-09-17T05:52:54.634Z,1.83
2022-09-17T05:53:56.459Z,1.77
2022-09-17T05:54:58.136Z,1.90
2022-09-17T05:56:00.147Z,1.73
2022-09-17T05:57:01.898Z,1.97
2022-09-17T05:58:14.912Z,1.93
2022-09-17T05:59:16.662Z,2.10
2022-09-17T06:00:18.929Z,1.90
2022-09-17T06:01:20.662Z,1.60
2022-09-17T06:02:22.518Z,1.80
2022-09-17T06:03:24.274Z,1.87
2022-09-17T06:04:26.855Z,1.90
2022-09-17T06:05:28.550Z,1.90
2022-09-17T06:06:30.972Z,1.73
2022-09-17T06:07:38.557Z,1.70
2022-09-17T06:08:40.246Z,2.20
2022-09-17T06:09:41.917Z,1.97
2022-09-17T06:10:43.581Z,2.33
2022-09-17T06:11:45.279Z,2.70
2022-09-17T06:12:47.399Z,2.28
2022-09-17T06:13:53.134Z,2.17
2022-09-17T06:14:55.054Z,2.13
2022-09-17T06:15:56.979Z,2.03
2022-09-17T06:16:58.762Z,2.13
2022-09-17T06:18:00.476Z,2.40
2022-09-17T06:19:03.883Z,2.03
2022-09-17T06:20:06.326Z,2.03
2022-09-17T06:21:07.991Z,1.90
2022-09-17T06:22:09.646Z,1.90
2022-09-17T06:23:15.770Z,2.00
2022-09-17T06:24:17.724Z,1.83
2022-09-17T06:25:19.456Z,2.03
2022-09-17T06:26:21.147Z,2.13
2022-09-17T06:27:22.955Z,2.07
2022-09-17T06:28:26.152Z,1.90
2022-09-17T06:29:27.913Z,1.70
2022-09-17T06:30:29.650Z,1.85
2022-09-17T06:31:31.352Z,2.10
2022-09-17T06:32:33.370Z,1.90
2022-09-17T06:33:36.456Z,1.98
2022-09-17T06:34:38.509Z,1.70
2022-09-17T06:35:40.215Z,1.67
2022-09-17T06:36:41.887Z,1.87
2022-09-17T06:37:43.592Z,1.97
2022-09-17T06:38:45.732Z,2.20
2022-09-17T06:39:47.560Z,2.25
2022-09-17T06:40:52.903Z,1.90
2022-09-17T06:41:54.585Z,2.10
2022-09-17T06:42:59.742Z,1.90
2022-09-17T06:44:02.197Z,1.93
2022-09-17T06:45:08.566Z,1.77
2022-09-17T06:46:11.604Z,1.80
2022-09-17T06:47:13.344Z,2.13
2022-09-17T06:48:15.000Z,1.80
2022-09-17T06:49:17.961Z,1.65
2022-09-17T06:50:19.893Z,1.48
2022-09-17T06:51:22.626Z,2.23
2022-09-17T06:52:24.373Z,1.90
2022-09-17T06:53:26.159Z,1.77
2022-09-17T06:54:27.864Z,2.20
2022-09-17T06:55:29.521Z,2.00
2022-09-17T06:56:33.499Z,1.60
2022-09-17T06:57:35.180Z,1.60
2022-09-17T06:58:38.409Z,2.20
2022-09-17T06:59:40.142Z,2.10
2022-09-17T07:00:42.082Z,1.80
2022-09-17T07:01:43.834Z,1.88
2022-09-17T07:02:56.291Z,2.00
2022-09-17T07:03:58.064Z,1.75
2022-09-17T07:04:59.759Z,2.50
2022-09-17T07:06:01.510Z,2.00
2022-09-17T07:07:05.175Z,2.15
2022-09-17T07:08:06.899Z,1.85
2022-09-17T07:09:11.093Z,1.70
2022-09-17T07:10:12.919Z,1.85
2022-09-17T07:11:16.011Z,2.20
2022-09-17T07:12:17.712Z,2.03
2022-09-17T07:13:19.382Z,1.83
2022-09-17T07:14:21.214Z,1.75
2022-09-17T07:15:23.325Z,1.60
2022-09-17T07:16:26.640Z,2.13
2022-09-17T07:17:29.826Z,1.70
2022-09-17T07:18:31.737Z,1.80
2022-09-17T07:19:33.437Z,1.60
2022-09-17T07:20:35.795Z,1.67
2022-09-17T07:21:37.467Z,1.85
2022-09-17T07:22:39.448Z,1.80
2022-09-17T07:23:41.211Z,1.88
2022-09-17T07:24:42.891Z,1.48
2022-09-17T07:25:44.572Z,1.85
2022-09-17T07:26:46.235Z,2.00
2022-09-17T07:27:47.912Z,1.67
2022-09-17T07:28:49.619Z,1.70
2022-09-17T07:29:51.284Z,2.30
2022-09-17T07:30:53.576Z,1.92
2022-09-17T07:31:55.468Z,1.98
2022-09-17T07:33:01.613Z,2.30
2022-09-17T07:34:03.637Z,2.00
2022-09-17T07:35:05.759Z,2.00
2022-09-17T07:36:14.030Z,1.90
2022-09-17T07:37:16.470Z,1.80
2022-09-17T07:38:18.238Z,2.10
2022-09-17T07:39:19.963Z,2.57
2022-09-17T07:40:21.706Z,2.08
2022-09-17T07:41:23.725Z,1.93
2022-09-17T07:42:27.408Z,2.00
2022-09-17T07:43:31.188Z,2.47
2022-09-17T07:44:32.847Z,2.40
2022-09-17T07:45:34.518Z,2.50
2022-09-17T07:46:36.547Z,2.20
2022-09-17T07:47:41.532Z,2.40
2022-09-17T07:48:43.543Z,2.10
2022-09-17T07:49:45.213Z,2.05
2022-09-17T07:50:47.574Z,2.30
2022-09-17T07:51:49.218Z,1.93
2022-09-17T07:52:50.969Z,2.03
2022-09-17T07:53:53.738Z,1.92
2022-09-17T07:54:55.416Z,2.37
2022-09-17T07:55:59.679Z,2.10
2022-09-17T07:57:01.411Z,2.00
2022-09-17T07:58:03.272Z,2.00
2022-09-17T07:59:05.225Z,2.40
2022-09-17T08:00:08.020Z,2.33
2022-09-17T08:01:11.964Z,2.40
2022-09-17T08:02:14.287Z,2.30
2022-09-17T08:03:16.668Z,2.20
2022-09-17T08:04:18.368Z,2.70
2022-09-17T08:05:20.153Z,2.20
2022-09-17T08:06:28.669Z,2.42
2022-09-17T08:07:30.355Z,2.22
2022-09-17T08:08:33.711Z,2.53
2022-09-17T08:09:35.437Z,2.20
2022-09-17T08:10:37.181Z,1.73
2022-09-17T08:11:54.972Z,2.00
2022-09-17T08:12:58.692Z,2.55
2022-09-17T08:14:00.828Z,2.60
2022-09-17T08:15:02.544Z,2.20
2022-09-17T08:16:09.447Z,2.67
2022-09-17T08:17:11.164Z,2.40
2022-09-17T08:18:15.579Z,2.30
2022-09-17T08:19:18.981Z,2.17
2022-09-17T08:20:21.176Z,1.85
2022-09-17T08:21:23.975Z,1.95
2022-09-17T08:22:25.757Z,2.27
2022-09-17T08:23:28.754Z,2.43
2022-09-17T08:24:30.658Z,1.95
2022-09-17T08:25:32.333Z,1.80
2022-09-17T08:26:34.098Z,1.90
2022-09-17T08:27:38.734Z,1.75
2022-09-17T08:28:43.885Z,1.77
2022-09-17T08:29:45.680Z,2.05
2022-09-17T08:30:48.380Z,1.98
2022-09-17T08:31:50.066Z,1.83
2022-09-17T08:32:54.887Z,2.05
2022-09-17T08:33:56.594Z,1.93
2022-09-17T08:34:58.505Z,2.05
2022-09-17T08:36:00.815Z,2.00
2022-09-17T08:37:03.079Z,2.17
2022-09-17T08:38:04.845Z,2.40
2022-09-17T08:39:06.679Z,2.20
2022-09-17T08:40:16.579Z,1.85
2022-09-17T08:41:24.275Z,2.38
2022-09-17T08:42:41.619Z,2.08
2022-09-17T08:44:06.385Z,2.08
2022-09-17T08:45:14.364Z,2.43
2022-09-17T08:46:16.232Z,2.13
2022-09-17T08:47:24.831Z,2.17
2022-09-17T08:48:37.345Z,2.50
2022-09-17T08:50:03.266Z,2.30
2022-09-17T08:51:32.324Z,2.30
2022-09-17T08:53:02.763Z,2.53
2022-09-17T08:54:17.290Z,2.33
2022-09-17T08:55:41.035Z,2.20
2022-09-17T08:56:45.511Z,2.30
2022-09-17T08:58:29.758Z,2.10
2022-09-17T09:00:01.572Z,2.30
2022-09-17T09:01:18.793Z,2.20
2022-09-17T09:02:23.405Z,2.03
2022-09-17T09:03:46.517Z,2.40
2022-09-17T09:05:03.015Z,2.33
2022-09-17T09:06:10.497Z,2.35
2022-09-17T09:07:42.513Z,2.38
2022-09-17T09:09:15.208Z,2.63
2022-09-17T09:10:31.623Z,2.10
2022-09-17T09:11:34.510Z,2.20
2022-09-17T09:12:38.524Z,2.70
2022-09-17T09:13:49.085Z,2.03
2022-09-17T09:15:16.654Z,2.80
2022-09-17T09:16:20.454Z,2.80
2022-09-17T09:17:27.052Z,2.30
2022-09-17T09:18:36.535Z,2.13
2022-09-17T09:19:44.274Z,2.00
2022-09-17T09:20:55.558Z,2.10
2022-09-17T09:22:05.927Z,2.72
2022-09-17T09:23:44.010Z,2.25
2022-09-17T09:24:54.068Z,1.90
2022-09-17T09:26:24.732Z,2.30
2022-09-17T09:27:36.243Z,2.65
2022-09-17T09:29:08.756Z,2.60
2022-09-17T09:30:13.463Z,1.85
2022-09-17T09:31:23.775Z,2.30
2022-09-17T09:33:03.591Z,2.38
2022-09-17T09:34:05.597Z,2.40
2022-09-17T09:35:18.184Z,2.17
2022-09-17T09:36:21.890Z,2.28
2022-09-17T09:37:34.603Z,2.50
2022-09-17T09:38:46.738Z,2.63
2022-09-17T09:39:51.966Z,2.53
2022-09-17T09:41:08.120Z,2.03
2022-09-17T09:42:20.084Z,2.30
2022-09-17T09:43:59.620Z,2.40
2022-09-17T09:45:12.539Z,2.47
2022-09-17T09:46:26.036Z,2.58
2022-09-17T09:48:10.938Z,2.67
2022-09-17T09:49:36.085Z,2.03
2022-09-17T09:51:04.641Z,2.40
2022-09-17T09:52:32.754Z,2.55
2022-09-17T09:54:02.453Z,2.38
2022-09-17T09:55:04.110Z,2.70
2022-09-17T09:56:11.866Z,2.40
2022-09-17T09:57:17.610Z,2.33
2022-09-17T09:58:35.325Z,2.30
2022-09-17T09:59:37.099Z,2.22
2022-09-17T10:00:40.568Z,2.20
2022-09-17T10:01:45.061Z,2.63
2022-09-17T10:02:48.178Z,2.72
2022-09-17T10:03:52.650Z,2.35
2022-09-17T10:04:54.356Z,2.88
2022-09-17T10:06:00.836Z,2.55
2022-09-17T10:07:07.679Z,2.20
2022-09-17T10:08:14.639Z,2.78
2022-09-17T10:09:21.118Z,2.40
2022-09-17T10:10:23.036Z,2.15
2022-09-17T10:11:30.198Z,2.00
2022-09-17T10:12:31.873Z,2.03
2022-09-17T10:13:35.768Z,2.17
2022-09-17T10:14:40.840Z,2.60
2022-09-17T10:15:42.684Z,2.53
2022-09-17T10:16:44.535Z,2.00
2022-09-17T10:17:47.197Z,1.83
2022-09-17T10:18:51.374Z,2.00
2022-09-17T10:20:03.537Z,2.30
2022-09-17T10:21:05.363Z,2.03
2022-09-17T10:22:32.419Z,2.70
2022-09-17T10:23:38.509Z,2.22
2022-09-17T10:24:40.260Z,2.33
2022-09-17T10:25:43.769Z,2.15
2022-09-17T10:26:45.563Z,2.10
2022-09-17T10:27:47.974Z,2.78
2022-09-17T10:28:55.762Z,2.00
2022-09-17T10:30:08.368Z,2.17
2022-09-17T10:31:10.853Z,2.28
2022-09-17T10:32:17.481Z,2.08
2022-09-17T10:33:25.476Z,2.10
2022-09-17T10:34:29.967Z,1.88
2022-09-17T10:35:32.877Z,2.17
2022-09-17T10:36:44.867Z,1.73
2022-09-17T10:37:51.353Z,2.20
2022-09-17T10:38:53.033Z,1.83
2022-09-17T10:39:56.623Z,2.13
2022-09-17T10:41:30.962Z,1.67
2022-09-17T10:42:32.754Z,1.80
2022-09-17T10:43:34.482Z,2.03
2022-09-17T10:44:37.290Z,1.77
2022-09-17T10:45:43.398Z,1.60
2022-09-17T10:46:45.100Z,1.83
2022-09-17T10:47:46.946Z,1.85
2022-09-17T10:49:11.915Z,1.73
2022-09-17T10:50:18.113Z,1.40
2022-09-17T10:51:23.242Z,2.00
2022-09-17T10:52:33.463Z,1.90
2022-09-17T10:54:12.695Z,1.83
2022-09-17T10:55:14.377Z,1.60
2022-09-17T10:56:28.225Z,1.77
2022-09-17T10:57:55.131Z,1.73
2022-09-17T10:59:03.456Z,1.65
2022-09-17T11:00:16.951Z,1.40
2022-09-17T11:01:46.083Z,1.52
2022-09-17T11:02:50.902Z,1.65
2022-09-17T11:04:14.858Z,1.33
2022-09-17T11:05:37.568Z,1.52
2022-09-17T11:06:45.602Z,1.20
2022-09-17T11:07:50.433Z,1.05
2022-09-17T11:08:55.241Z,1.42
2022-09-17T11:10:15.731Z,1.33
2022-09-17T11:11:48.084Z,1.63
2022-09-17T11:13:21.907Z,1.50
2022-09-17T11:14:51.766Z,1.35
2022-09-17T11:16:17.582Z,1.55
2022-09-17T11:17:50.051Z,1.70
2022-09-17T11:19:08.865Z,1.20
2022-09-17T11:20:22.858Z,1.63
2022-09-17T11:21:41.605Z,1.30
2022-09-17T11:23:12.739Z,1.20
2022-09-17T11:24:45.776Z,1.23
2022-09-17T11:26:00.402Z,1.30
2022-09-17T11:27:16.953Z,1.33
2022-09-17T11:28:34.034Z,1.48
2022-09-17T11:30:03.271Z,1.50
2022-09-17T11:31:21.685Z,1.60
2022-09-17T11:33:02.579Z,1.20
2022-09-17T11:34:45.830Z,1.55
2022-09-17T11:35:51.868Z,1.40
2022-09-17T11:37:26.552Z,1.15
2022-09-17T11:38:39.759Z,1.27
2022-09-17T11:39:59.659Z,1.33
2022-09-17T11:41:33.511Z,1.25
2022-09-17T11:42:46.468Z,1.20
2022-09-17T11:44:15.664Z,1.23
2022-09-17T11:45:20.069Z,1.38
2022-09-17T11:46:27.625Z,1.20
2022-09-17T11:47:41.310Z,1.58
2022-09-17T11:48:46.523Z,1.20
2022-09-17T11:50:42.294Z,1.23
2022-09-17T11:51:58.654Z,1.05
2022-09-17T11:53:06.475Z,1.10
2022-09-17T11:54:18.808Z,1.38
2022-09-17T11:55:49.243Z,1.30
2022-09-17T11:57:09.589Z,1.02
2022-09-17T11:58:28.127Z,1.30
2022-09-17T11:59:42.554Z,1.20
2022-09-17T12:00:52.967Z,1.63
2022-09-17T12:02:24.306Z,1.50
2022-09-17T12:03:34.980Z,1.13
2022-09-17T12:04:59.768Z,1.00
2022-09-17T12:06:19.476Z,1.10
2022-09-17T12:08:06.304Z,1.00
2022-09-17T12:09:17.673Z,1.30
2022-09-17T12:10:25.270Z,1.00
2022-09-17T12:11:49.176Z,1.05
2022-09-17T12:12:58.108Z,1.10
2022-09-17T12:14:19.169Z,1.05
2022-09-17T12:15:34.164Z,1.15
2022-09-17T12:16:43.601Z,1.00
2022-09-17T12:18:27.684Z,1.10
2022-09-17T12:19:37.543Z,1.13
2022-09-17T12:20:45.013Z,1.05
2022-09-17T12:21:55.998Z,1.20
2022-09-17T12:23:03.039Z,1.27
2022-09-17T12:24:22.486Z,0.93
2022-09-17T12:25:29.478Z,1.17
2022-09-17T12:26:49.469Z,1.15
2022-09-17T12:27:56.925Z,1.30
2022-09-17T12:29:17.530Z,1.27
2022-09-17T12:30:22.960Z,1.10
2022-09-17T12:31:31.599Z,1.10
2022-09-17T12:32:57.429Z,1.38
2022-09-17T12:34:22.658Z,1.50
2022-09-17T12:37:25.221Z,1.40
2022-09-17T12:38:49.252Z,1.40
2022-09-17T12:40:13.085Z,1.30
2022-09-17T12:41:50.249Z,0.90
2022-09-17T12:42:54.838Z,1.70
2022-09-17T12:43:59.704Z,1.55
2022-09-17T12:45:20.511Z,1.45
2022-09-17T12:46:43.508Z,1.60
2022-09-17T12:48:13.227Z,1.05
2022-09-17T12:49:27.812Z,1.20
2022-09-17T12:50:35.840Z,1.17
2022-09-17T12:51:50.072Z,1.15
2022-09-17T12:53:02.774Z,1.92
2022-09-17T12:54:22.350Z,1.45
2022-09-17T12:55:31.009Z,1.25
2022-09-17T12:57:06.734Z,1.40
2022-09-17T12:58:38.906Z,1.50
2022-09-17T12:59:50.707Z,0.95
2022-09-17T13:01:02.455Z,0.98
2022-09-17T13:02:41.358Z,1.02
2022-09-17T13:04:06.660Z,1.00
2022-09-17T13:05:35.209Z,0.90
2022-09-17T13:06:40.664Z,0.90
2022-09-17T13:08:03.591Z,0.90
2022-09-17T13:09:27.387Z,1.00
2022-09-17T13:10:48.150Z,1.05
2022-09-17T13:11:52.843Z,1.20
2022-09-17T13:13:19.681Z,1.00
2022-09-17T13:14:40.351Z,0.80
2022-09-17T13:16:12.100Z,1.17
2022-09-17T13:17:32.046Z,1.00
2022-09-17T13:19:15.180Z,1.33
2022-09-17T13:20:16.559Z,0.80
2022-09-17T13:21:40.272Z,0.90
2022-09-17T13:22:47.855Z,0.90
2022-09-17T13:23:52.285Z,0.90
2022-09-17T13:25:09.732Z,0.80
2022-09-17T13:26:16.962Z,0.80
2022-09-17T13:27:27.869Z,0.80
2022-09-17T13:28:50.202Z,0.95
2022-09-17T13:29:54.845Z,0.90
2022-09-17T13:31:06.192Z,0.90
2022-09-17T13:32:09.944Z,0.90
2022-09-17T13:33:11.761Z,0.90
2022-09-17T13:34:19.428Z,1.00
2022-09-17T13:35:21.198Z,1.00
2022-09-17T13:36:49.825Z,1.02
2022-09-17T13:37:58.377Z,1.10
2022-09-17T13:39:02.084Z,0.63
2022-09-17T13:40:06.743Z,0.80
2022-09-17T13:41:21.243Z,0.80
2022-09-17T13:42:32.011Z,0.80
2022-09-17T13:43:46.366Z,0.82
2022-09-17T13:45:16.273Z,1.00
2022-09-17T13:46:23.664Z,0.90
2022-09-17T13:47:32.040Z,0.90
2022-09-17T13:48:35.502Z,0.95
2022-09-17T13:49:45.133Z,1.48
2022-09-17T13:50:48.107Z,0.80
2022-09-17T13:51:51.348Z,0.90
2022-09-17T13:52:56.714Z,1.10
2022-09-17T13:54:07.322Z,1.05
2022-09-17T13:55:29.760Z,1.20
2022-09-17T13:56:50.167Z,0.98
2022-09-17T13:57:52.017Z,0.88
2022-09-17T13:58:53.777Z,0.98
2022-09-17T13:59:58.908Z,1.00
2022-09-17T14:01:02.331Z,0.85
2022-09-17T14:02:16.042Z,0.90
2022-09-17T14:03:38.413Z,0.90
2022-09-17T14:04:41.932Z,1.00
2022-09-17T14:05:46.998Z,1.27
2022-09-17T14:06:54.290Z,1.08
2022-09-17T14:08:28.977Z,1.10
2022-09-17T14:09:50.279Z,1.20
2022-09-17T14:10:54.318Z,1.17
2022-09-17T14:11:57.661Z,1.27
2022-09-17T14:17:00.453Z,1.10
2022-09-17T14:18:22.743Z,0.80
2022-09-17T14:19:42.703Z,0.88
2022-09-17T14:20:45.186Z,1.00
2022-09-17T14:22:00.945Z,1.13
2022-09-17T14:23:03.512Z,0.90
2022-09-17T14:24:20.690Z,0.82
2022-09-17T14:25:47.623Z,1.27
2022-09-17T14:27:17.128Z,1.10
2022-09-17T14:28:27.983Z,0.95
2022-09-17T14:29:41.450Z,1.15
2022-09-17T14:30:44.141Z,0.88
2022-09-17T14:31:46.116Z,0.93
2022-09-17T14:33:14.954Z,0.85
2022-09-17T14:34:21.836Z,1.00
2022-09-17T14:35:50.382Z,1.00
2022-09-17T14:36:54.047Z,1.25
2022-09-17T14:38:00.081Z,0.65
2022-09-17T14:39:04.735Z,1.00
2022-09-17T14:40:14.417Z,1.10
2022-09-17T14:41:23.098Z,1.00
2022-09-17T14:42:34.129Z,1.30
2022-09-17T14:43:57.306Z,0.90
2022-09-17T14:45:03.739Z,1.20
2022-09-17T14:46:09.884Z,0.70
2022-09-17T14:47:18.247Z,1.10
2022-09-17T14:48:34.751Z,1.13
2022-09-17T14:49:39.943Z,0.70
2022-09-17T14:50:41.699Z,1.20
2022-09-17T14:51:43.404Z,1.02
2022-09-17T14:52:50.072Z,1.10
2022-09-17T14:54:44.665Z,1.17
2022-09-17T14:55:49.614Z,1.00
2022-09-17T14:57:15.463Z,1.10
2022-09-17T14:58:37.664Z,1.13
2022-09-17T14:59:45.415Z,1.00
2022-09-17T15:00:52.770Z,1.10
2022-09-17T15:01:54.940Z,1.08
2022-09-17T15:03:00.530Z,0.90
2022-09-17T15:04:14.252Z,0.90
2022-09-17T15:05:22.048Z,1.00
2022-09-17T15:06:23.718Z,1.08
2022-09-17T15:07:26.506Z,1.10
2022-09-17T15:08:30.207Z,1.20
2022-09-17T15:09:31.936Z,1.20
2022-09-17T15:10:37.059Z,1.33
2022-09-17T15:11:43.064Z,0.95
2022-09-17T15:12:46.561Z,1.52
2022-09-17T15:13:52.140Z,1.10
2022-09-17T15:14:55.400Z,1.13
2022-09-17T15:16:07.663Z,0.98
2022-09-17T15:17:15.688Z,1.23
2022-09-17T15:18:17.411Z,1.20
2022-09-17T15:19:34.144Z,1.60
2022-09-17T15:20:36.068Z,1.27